createdAt,value
2018-11-26T00:00:56.005Z,994.05
2018-11-26T00:01:56.023Z,994.06
2018-11-26T00:02:56.042Z,994.07
2018-11-26T00:03:56.061Z,994.06
2018-11-26T00:04:56.083Z,994.03
2018-11-26T00:05:56.103Z,994.06
2018-11-26T00:06:56.118Z,994.06
2018-11-26T00:07:56.130Z,994.07
2018-11-26T00:08:56.149Z,994.05
2018-11-26T00:09:56.168Z,994
2018-11-26T00:10:56.187Z,994.02
2018-11-26T00:11:56.204Z,994.02
2018-11-26T00:12:56.225Z,994.08
2018-11-26T00:13:56.241Z,994.06
2018-11-26T00:14:56.259Z,994.04
2018-11-26T00:15:56.277Z,994.03
2018-11-26T00:16:56.295Z,994.04
2018-11-26T00:17:56.318Z,994.1
2018-11-26T00:18:56.331Z,994.07
2018-11-26T00:19:56.351Z,994.05
2018-11-26T00:20:56.374Z,994.07
2018-11-26T00:21:56.387Z,994.1
2018-11-26T00:22:56.407Z,994.09
2018-11-26T00:23:56.427Z,994.09
2018-11-26T00:24:56.442Z,994.09
2018-11-26T00:25:56.466Z,994.05
2018-11-26T00:26:56.477Z,994.05
2018-11-26T00:27:56.497Z,994.03
2018-11-26T00:28:56.515Z,994.02
2018-11-26T00:29:56.532Z,994.02
2018-11-26T00:30:56.550Z,994.01
2018-11-26T00:31:56.573Z,994.02
2018-11-26T00:32:56.590Z,994
2018-11-26T00:33:56.613Z,993.98
2018-11-26T00:34:56.629Z,993.96
2018-11-26T00:35:56.646Z,993.99
2018-11-26T00:36:56.658Z,993.96
2018-11-26T00:37:56.677Z,993.97
2018-11-26T00:38:56.700Z,993.93
2018-11-26T00:39:56.720Z,993.9
2018-11-26T00:40:56.732Z,993.93
2018-11-26T00:41:56.750Z,993.9
2018-11-26T00:42:56.769Z,993.89
2018-11-26T00:43:56.787Z,993.9
2018-11-26T00:44:56.810Z,993.89
2018-11-26T00:45:56.825Z,993.9
2018-11-26T00:46:56.844Z,993.91
2018-11-26T00:47:56.860Z,993.91
2018-11-26T00:48:56.884Z,993.9
2018-11-26T00:49:56.896Z,993.87
2018-11-26T00:50:56.917Z,993.9
2018-11-26T00:51:56.933Z,993.89
2018-11-26T00:52:56.959Z,993.9
2018-11-26T00:53:56.971Z,993.88
2018-11-26T00:54:56.987Z,993.87
2018-11-26T00:55:57.010Z,993.87
2018-11-26T00:56:57.030Z,993.87
2018-11-26T00:57:57.048Z,993.82
2018-11-26T00:58:57.060Z,993.82
2018-11-26T00:59:57.084Z,993.82
2018-11-26T01:00:57.098Z,993.79
2018-11-26T01:01:57.116Z,993.73
2018-11-26T01:02:57.137Z,993.7
2018-11-26T01:03:57.152Z,993.72
2018-11-26T01:04:57.171Z,993.72
2018-11-26T01:05:57.193Z,993.73
2018-11-26T01:06:57.207Z,993.72
2018-11-26T01:07:57.225Z,993.67
2018-11-26T01:08:57.247Z,993.69
2018-11-26T01:09:57.261Z,993.7
2018-11-26T01:10:57.280Z,993.66
2018-11-26T01:11:57.302Z,993.67
2018-11-26T01:12:57.322Z,993.63
2018-11-26T01:13:57.334Z,993.63
2018-11-26T01:14:57.353Z,993.65
2018-11-26T01:15:57.375Z,993.62
2018-11-26T01:16:57.391Z,993.61
2018-11-26T01:17:57.410Z,993.59
2018-11-26T01:18:57.433Z,993.58
2018-11-26T01:19:57.446Z,993.59
2018-11-26T01:20:57.464Z,993.57
2018-11-26T01:21:57.481Z,993.61
2018-11-26T01:22:57.505Z,993.57
2018-11-26T01:23:57.518Z,993.55
2018-11-26T01:24:57.537Z,993.56
2018-11-26T01:25:57.555Z,993.55
2018-11-26T01:26:57.578Z,993.52
2018-11-26T01:27:57.593Z,993.56
2018-11-26T01:28:57.615Z,993.51
2018-11-26T01:29:57.628Z,993.56
2018-11-26T01:30:57.647Z,993.58
2018-11-26T01:31:57.675Z,993.57
2018-11-26T01:32:57.682Z,993.53
2018-11-26T01:33:57.706Z,993.55
2018-11-26T01:34:57.724Z,993.56
2018-11-26T01:35:57.742Z,993.48
2018-11-26T01:36:57.757Z,993.53
2018-11-26T01:37:57.777Z,993.52
2018-11-26T01:38:57.794Z,993.49
2018-11-26T01:39:57.811Z,993.51
2018-11-26T01:40:57.835Z,993.47
2018-11-26T01:41:57.849Z,993.54
2018-11-26T01:42:57.869Z,993.53
2018-11-26T01:43:57.885Z,993.57
2018-11-26T01:44:57.909Z,993.65
2018-11-26T01:45:57.921Z,993.59
2018-11-26T01:46:57.944Z,993.62
2018-11-26T01:47:57.959Z,993.58
2018-11-26T01:48:57.977Z,993.54
2018-11-26T01:49:57.999Z,993.54
2018-11-26T01:50:58.014Z,993.55
2018-11-26T01:51:58.032Z,993.54
2018-11-26T01:52:58.051Z,993.53
2018-11-26T01:53:58.071Z,993.5
2018-11-26T01:54:58.088Z,993.52
2018-11-26T01:55:58.106Z,993.55
2018-11-26T01:56:58.122Z,993.5
2018-11-26T01:57:58.145Z,993.5
2018-11-26T01:58:58.160Z,993.48
2018-11-26T01:59:58.179Z,993.46
2018-11-26T02:00:58.196Z,993.43
2018-11-26T02:01:58.215Z,993.48
2018-11-26T02:02:58.233Z,993.45
2018-11-26T02:03:58.256Z,993.45
2018-11-26T02:04:58.270Z,993.45
2018-11-26T02:05:58.289Z,993.49
2018-11-26T02:06:58.309Z,993.43
2018-11-26T02:07:58.325Z,993.43
2018-11-26T02:08:58.347Z,993.43
2018-11-26T02:09:58.365Z,993.45
2018-11-26T02:10:58.381Z,993.45
2018-11-26T02:11:58.398Z,993.44
2018-11-26T02:12:58.421Z,993.52
2018-11-26T02:13:58.434Z,993.52
2018-11-26T02:14:58.457Z,993.53
2018-11-26T02:15:58.472Z,993.56
2018-11-26T02:16:58.494Z,993.59
2018-11-26T02:17:58.510Z,993.52
2018-11-26T02:18:58.525Z,993.56
2018-11-26T02:19:58.543Z,993.58
2018-11-26T02:20:58.562Z,993.57
2018-11-26T02:21:58.580Z,993.55
2018-11-26T02:22:58.600Z,993.55
2018-11-26T02:23:58.619Z,993.58
2018-11-26T02:24:58.635Z,993.57
2018-11-26T02:25:58.653Z,993.62
2018-11-26T02:26:58.672Z,993.61
2018-11-26T02:27:58.691Z,993.58
2018-11-26T02:28:58.709Z,993.64
2018-11-26T02:29:58.725Z,993.61
2018-11-26T02:30:58.745Z,993.63
2018-11-26T02:31:58.760Z,993.6
2018-11-26T02:32:58.805Z,993.62
2018-11-26T02:33:58.802Z,993.63
2018-11-26T02:34:58.820Z,993.64
2018-11-26T02:35:58.840Z,993.57
2018-11-26T02:36:58.863Z,993.58
2018-11-26T02:37:58.872Z,993.6
2018-11-26T02:38:58.895Z,993.6
2018-11-26T02:39:58.908Z,993.61
2018-11-26T02:40:58.926Z,993.61
2018-11-26T02:41:58.943Z,993.58
2018-11-26T02:42:58.966Z,993.65
2018-11-26T02:43:58.984Z,993.61
2018-11-26T02:44:58.997Z,993.59
2018-11-26T02:45:59.021Z,993.59
2018-11-26T02:46:59.035Z,993.58
2018-11-26T02:47:59.054Z,993.54
2018-11-26T02:48:59.073Z,993.52
2018-11-26T02:49:59.090Z,993.56
2018-11-26T02:50:59.110Z,993.54
2018-11-26T02:51:59.125Z,993.56
2018-11-26T02:52:59.145Z,993.51
2018-11-26T02:53:59.163Z,993.51
2018-11-26T02:54:59.183Z,993.53
2018-11-26T02:55:59.198Z,993.52
2018-11-26T02:56:59.217Z,993.51
2018-11-26T02:57:59.236Z,993.55
2018-11-26T02:58:59.259Z,993.52
2018-11-26T02:59:59.271Z,993.54
2018-11-26T03:00:59.295Z,993.5
2018-11-26T03:01:59.309Z,993.52
2018-11-26T03:02:59.326Z,993.5
2018-11-26T03:03:59.345Z,993.51
2018-11-26T03:04:59.365Z,993.54
2018-11-26T03:05:59.380Z,993.51
2018-11-26T03:06:59.398Z,993.56
2018-11-26T03:07:59.420Z,993.57
2018-11-26T03:08:59.437Z,993.56
2018-11-26T03:09:59.454Z,993.58
2018-11-26T03:10:59.475Z,993.58
2018-11-26T03:11:59.492Z,993.55
2018-11-26T03:12:59.515Z,993.62
2018-11-26T03:13:59.528Z,993.59
2018-11-26T03:14:59.543Z,993.6
2018-11-26T03:15:59.563Z,993.58
2018-11-26T03:16:59.580Z,993.61
2018-11-26T03:17:59.597Z,993.62
2018-11-26T03:18:59.618Z,993.54
2018-11-26T03:19:59.637Z,993.55
2018-11-26T03:20:59.652Z,993.53
2018-11-26T03:21:59.669Z,993.52
2018-11-26T03:22:59.711Z,993.57
2018-11-26T03:23:59.710Z,993.52
2018-11-26T03:24:59.729Z,993.51
2018-11-26T03:25:59.749Z,993.52
2018-11-26T03:26:59.761Z,993.49
2018-11-26T03:27:59.786Z,993.45
2018-11-26T03:28:59.799Z,993.47
2018-11-26T03:29:59.816Z,993.46
2018-11-26T03:30:59.834Z,993.44
2018-11-26T03:31:59.852Z,993.48
2018-11-26T03:32:59.870Z,993.45
2018-11-26T03:33:59.888Z,993.49
2018-11-26T03:34:59.908Z,993.47
2018-11-26T03:35:59.924Z,993.48
2018-11-26T03:36:59.947Z,993.44
2018-11-26T03:37:59.960Z,993.44
2018-11-26T03:38:59.979Z,993.38
2018-11-26T03:39:59.995Z,993.41
2018-11-26T03:41:00.025Z,993.44
2018-11-26T03:42:00.032Z,993.43
2018-11-26T03:43:00.054Z,993.42
2018-11-26T03:44:00.069Z,993.46
2018-11-26T03:45:00.110Z,993.47
2018-11-26T03:46:00.105Z,993.48
2018-11-26T03:47:00.126Z,993.5
2018-11-26T03:48:00.141Z,993.55
2018-11-26T03:49:00.163Z,993.45
2018-11-26T03:50:00.180Z,993.49
2018-11-26T03:51:00.197Z,993.47
2018-11-26T03:52:00.215Z,993.46
2018-11-26T03:53:00.232Z,993.5
2018-11-26T03:54:00.252Z,993.51
2018-11-26T03:55:00.265Z,993.53
2018-11-26T03:56:00.291Z,993.49
2018-11-26T03:57:00.305Z,993.51
2018-11-26T03:58:00.321Z,993.56
2018-11-26T03:59:00.342Z,993.53
2018-11-26T04:00:00.359Z,993.56
2018-11-26T04:01:00.382Z,993.58
2018-11-26T04:02:00.396Z,993.58
2018-11-26T04:03:00.411Z,993.56
2018-11-26T04:04:00.442Z,993.58
2018-11-26T04:05:00.448Z,993.57
2018-11-26T04:06:00.465Z,993.57
2018-11-26T04:07:00.485Z,993.59
2018-11-26T04:08:00.502Z,993.6
2018-11-26T04:09:00.519Z,993.63
2018-11-26T04:10:00.537Z,993.59
2018-11-26T04:11:00.556Z,993.62
2018-11-26T04:12:00.576Z,993.6
2018-11-26T04:13:00.591Z,993.64
2018-11-26T04:14:00.609Z,993.63
2018-11-26T04:15:00.630Z,993.63
2018-11-26T04:16:00.644Z,993.62
2018-11-26T04:17:00.669Z,993.61
2018-11-26T04:18:00.680Z,993.6
2018-11-26T04:19:00.701Z,993.61
2018-11-26T04:20:00.716Z,993.58
2018-11-26T04:21:00.738Z,993.64
2018-11-26T04:22:00.758Z,993.62
2018-11-26T04:23:00.770Z,993.61
2018-11-26T04:24:00.789Z,993.69
2018-11-26T04:25:00.811Z,993.63
2018-11-26T04:26:00.825Z,993.63
2018-11-26T04:27:00.842Z,993.65
2018-11-26T04:28:00.859Z,993.65
2018-11-26T04:29:00.880Z,993.64
2018-11-26T04:30:00.897Z,993.63
2018-11-26T04:31:00.918Z,993.65
2018-11-26T04:32:00.932Z,993.62
2018-11-26T04:33:00.963Z,993.61
2018-11-26T04:34:00.968Z,993.61
2018-11-26T04:35:00.984Z,993.61
2018-11-26T04:36:01.013Z,993.64
2018-11-26T04:37:01.027Z,993.65
2018-11-26T04:38:01.044Z,993.67
2018-11-26T04:39:01.058Z,993.61
2018-11-26T04:40:01.075Z,993.62
2018-11-26T04:41:01.096Z,993.64
2018-11-26T04:42:01.114Z,993.64
2018-11-26T04:43:01.133Z,993.57
2018-11-26T04:44:01.147Z,993.6
2018-11-26T04:45:01.173Z,993.61
2018-11-26T04:46:01.187Z,993.59
2018-11-26T04:47:01.201Z,993.55
2018-11-26T04:48:01.225Z,993.54
2018-11-26T04:49:01.237Z,993.52
2018-11-26T04:50:01.256Z,993.51
2018-11-26T04:51:01.273Z,993.52
2018-11-26T04:52:01.290Z,993.51
2018-11-26T04:53:01.309Z,993.5
2018-11-26T04:54:01.335Z,993.5
2018-11-26T04:55:01.346Z,993.49
2018-11-26T04:56:01.362Z,993.46
2018-11-26T04:57:01.380Z,993.49
2018-11-26T04:58:01.412Z,993.55
2018-11-26T04:59:01.416Z,993.55
2018-11-26T05:00:01.434Z,993.58
2018-11-26T05:01:01.461Z,993.57
2018-11-26T05:02:01.470Z,993.61
2018-11-26T05:03:01.491Z,993.63
2018-11-26T05:04:01.505Z,993.64
2018-11-26T05:05:01.524Z,993.64
2018-11-26T05:06:01.543Z,993.67
2018-11-26T05:07:01.560Z,993.69
2018-11-26T05:08:01.577Z,993.71
2018-11-26T05:09:01.600Z,993.71
2018-11-26T05:10:01.614Z,993.7
2018-11-26T05:11:01.632Z,993.72
2018-11-26T05:12:01.650Z,993.73
2018-11-26T05:13:01.668Z,993.68
2018-11-26T05:14:01.686Z,993.67
2018-11-26T05:15:01.750Z,993.68
2018-11-26T05:16:01.722Z,993.65
2018-11-26T05:17:01.738Z,993.63
2018-11-26T05:18:01.755Z,993.69
2018-11-26T05:19:01.773Z,993.63
2018-11-26T05:20:01.791Z,993.69
2018-11-26T05:21:01.811Z,993.69
2018-11-26T05:22:01.828Z,993.73
2018-11-26T05:23:01.845Z,993.75
2018-11-26T05:24:01.867Z,993.74
2018-11-26T05:25:01.882Z,993.74
2018-11-26T05:26:01.915Z,993.77
2018-11-26T05:27:01.916Z,993.79
2018-11-26T05:28:01.937Z,993.78
2018-11-26T05:29:01.951Z,993.74
2018-11-26T05:30:01.975Z,993.8
2018-11-26T05:31:01.993Z,993.76
2018-11-26T05:32:02.007Z,993.76
2018-11-26T05:33:02.030Z,993.74
2018-11-26T05:34:02.043Z,993.76
2018-11-26T05:35:02.066Z,993.75
2018-11-26T05:36:02.083Z,993.74
2018-11-26T05:37:02.100Z,993.72
2018-11-26T05:38:02.113Z,993.75
2018-11-26T05:39:02.132Z,993.75
2018-11-26T05:40:02.147Z,993.77
2018-11-26T05:41:02.167Z,993.75
2018-11-26T05:42:02.184Z,993.71
2018-11-26T05:43:02.202Z,993.74
2018-11-26T05:44:02.226Z,993.68
2018-11-26T05:45:02.238Z,993.7
2018-11-26T05:46:02.260Z,993.69
2018-11-26T05:47:02.277Z,993.73
2018-11-26T05:48:02.291Z,993.74
2018-11-26T05:49:02.308Z,993.75
2018-11-26T05:50:02.330Z,993.72
2018-11-26T05:51:02.344Z,993.74
2018-11-26T05:52:02.363Z,993.69
2018-11-26T05:53:02.386Z,993.7
2018-11-26T05:54:02.400Z,993.69
2018-11-26T05:55:02.424Z,993.7
2018-11-26T05:56:02.434Z,993.72
2018-11-26T05:57:02.453Z,993.67
2018-11-26T05:58:02.474Z,993.7
2018-11-26T05:59:02.491Z,993.69
2018-11-26T06:00:02.518Z,993.72
2018-11-26T06:01:02.528Z,993.71
2018-11-26T06:02:02.542Z,993.71
2018-11-26T06:03:02.565Z,993.72
2018-11-26T06:04:02.583Z,993.76
2018-11-26T06:05:02.597Z,993.76
2018-11-26T06:06:02.614Z,993.79
2018-11-26T06:07:02.636Z,993.78
2018-11-26T06:08:02.651Z,993.79
2018-11-26T06:09:02.668Z,993.77
2018-11-26T06:10:02.691Z,993.77
2018-11-26T06:11:02.704Z,993.78
2018-11-26T06:12:02.727Z,993.77
2018-11-26T06:13:03.127Z,993.73
2018-11-26T06:14:02.759Z,993.8
2018-11-26T06:15:02.780Z,993.81
2018-11-26T06:16:02.795Z,993.79
2018-11-26T06:17:02.815Z,993.82
2018-11-26T06:18:02.830Z,993.79
2018-11-26T06:19:02.848Z,993.85
2018-11-26T06:20:02.872Z,993.87
2018-11-26T06:21:02.887Z,993.88
2018-11-26T06:22:02.901Z,993.89
2018-11-26T06:23:02.919Z,993.89
2018-11-26T06:24:02.937Z,993.9
2018-11-26T06:25:02.955Z,993.94
2018-11-26T06:26:02.977Z,993.94
2018-11-26T06:27:02.990Z,993.94
2018-11-26T06:28:03.009Z,993.92
2018-11-26T06:29:03.026Z,993.93
2018-11-26T06:30:03.044Z,993.96
2018-11-26T06:31:03.062Z,993.98
2018-11-26T06:32:03.084Z,993.91
2018-11-26T06:33:03.101Z,993.95
2018-11-26T06:34:03.116Z,993.94
2018-11-26T06:35:03.135Z,993.91
2018-11-26T06:36:03.151Z,993.92
2018-11-26T06:37:03.173Z,993.91
2018-11-26T06:38:03.186Z,993.9
2018-11-26T06:39:03.204Z,993.91
2018-11-26T06:40:03.222Z,993.92
2018-11-26T06:41:03.241Z,993.91
2018-11-26T06:42:03.261Z,993.9
2018-11-26T06:43:03.279Z,993.88
2018-11-26T06:44:03.296Z,993.87
2018-11-26T06:45:03.312Z,993.96
2018-11-26T06:46:03.333Z,993.87
2018-11-26T06:47:03.350Z,993.97
2018-11-26T06:48:03.365Z,993.96
2018-11-26T06:49:03.383Z,993.92
2018-11-26T06:50:03.401Z,993.96
2018-11-26T06:51:03.427Z,993.96
2018-11-26T06:52:03.442Z,993.97
2018-11-26T06:53:03.454Z,993.97
2018-11-26T06:54:03.473Z,993.99
2018-11-26T06:55:03.490Z,994.02
2018-11-26T06:56:03.509Z,994.01
2018-11-26T06:57:03.530Z,994
2018-11-26T06:58:03.544Z,994.05
2018-11-26T06:59:03.563Z,994.09
2018-11-26T07:00:03.585Z,994.1
2018-11-26T07:01:03.603Z,994.09
2018-11-26T07:02:03.620Z,994.14
2018-11-26T07:03:03.636Z,994.14
2018-11-26T07:04:03.652Z,994.13
2018-11-26T07:05:03.674Z,994.14
2018-11-26T07:06:03.691Z,994.16
2018-11-26T07:07:03.707Z,994.17
2018-11-26T07:08:03.724Z,994.21
2018-11-26T07:09:03.746Z,994.2
2018-11-26T07:10:03.760Z,994.27
2018-11-26T07:11:03.777Z,994.26
2018-11-26T07:12:03.796Z,994.3
2018-11-26T07:13:03.813Z,994.33
2018-11-26T07:14:03.832Z,994.33
2018-11-26T07:15:03.853Z,994.32
2018-11-26T07:16:03.867Z,994.33
2018-11-26T07:17:03.892Z,994.33
2018-11-26T07:18:03.908Z,994.29
2018-11-26T07:19:03.923Z,994.33
2018-11-26T07:20:03.943Z,994.29
2018-11-26T07:21:03.959Z,994.32
2018-11-26T07:22:03.976Z,994.35
2018-11-26T07:23:03.993Z,994.35
2018-11-26T07:24:04.015Z,994.38
2018-11-26T07:25:04.030Z,994.38
2018-11-26T07:26:04.048Z,994.32
2018-11-26T07:27:04.064Z,994.35
2018-11-26T07:28:04.083Z,994.34
2018-11-26T07:29:04.102Z,994.36
2018-11-26T07:30:04.118Z,994.39
2018-11-26T07:31:04.137Z,994.35
2018-11-26T07:32:04.156Z,994.39
2018-11-26T07:33:04.175Z,994.4
2018-11-26T07:34:04.190Z,994.42
2018-11-26T07:35:04.214Z,994.41
2018-11-26T07:36:07.128Z,994.43
2018-11-26T07:37:04.249Z,994.4
2018-11-26T07:38:04.263Z,994.42
2018-11-26T07:39:04.282Z,994.43
2018-11-26T07:40:04.303Z,994.48
2018-11-26T07:41:04.316Z,994.43
2018-11-26T07:42:04.341Z,994.48
2018-11-26T07:43:04.358Z,994.49
2018-11-26T07:44:04.371Z,994.47
2018-11-26T07:45:04.391Z,994.49
2018-11-26T07:46:04.406Z,994.48
2018-11-26T07:47:04.429Z,994.49
2018-11-26T07:48:04.443Z,994.5
2018-11-26T07:49:04.459Z,994.51
2018-11-26T07:50:04.482Z,994.51
2018-11-26T07:51:04.497Z,994.51
2018-11-26T07:52:04.518Z,994.53
2018-11-26T07:53:04.532Z,994.56
2018-11-26T07:54:04.550Z,994.58
2018-11-26T07:55:04.568Z,994.6
2018-11-26T07:56:04.585Z,994.59
2018-11-26T07:57:04.608Z,994.6
2018-11-26T07:58:04.621Z,994.6
2018-11-26T07:59:04.641Z,994.63
2018-11-26T08:00:04.659Z,994.62
2018-11-26T08:01:04.677Z,994.62
2018-11-26T08:02:04.695Z,994.61
2018-11-26T08:03:04.713Z,994.63
2018-11-26T08:04:04.732Z,994.61
2018-11-26T08:05:04.747Z,994.61
2018-11-26T08:06:08.812Z,994.63
2018-11-26T08:07:04.788Z,994.62
2018-11-26T08:08:04.802Z,994.63
2018-11-26T08:09:04.819Z,994.59
2018-11-26T08:10:04.838Z,994.62
2018-11-26T08:11:04.856Z,994.63
2018-11-26T08:12:04.874Z,994.62
2018-11-26T08:13:04.892Z,994.63
2018-11-26T08:14:04.913Z,994.65
2018-11-26T08:15:04.927Z,994.66
2018-11-26T08:16:04.945Z,994.67
2018-11-26T08:17:04.961Z,994.7
2018-11-26T08:18:04.981Z,994.71
2018-11-26T08:19:04.999Z,994.73
2018-11-26T08:20:05.064Z,994.69
2018-11-26T08:21:05.039Z,994.67
2018-11-26T08:22:05.056Z,994.69
2018-11-26T08:23:05.072Z,994.69
2018-11-26T08:24:05.090Z,994.69
2018-11-26T08:25:05.107Z,994.73
2018-11-26T08:26:05.127Z,994.72
2018-11-26T08:27:05.144Z,994.74
2018-11-26T08:28:05.167Z,994.75
2018-11-26T08:29:05.180Z,994.76
2018-11-26T08:30:05.201Z,994.75
2018-11-26T08:31:05.219Z,994.75
2018-11-26T08:32:05.233Z,994.78
2018-11-26T08:33:05.252Z,994.77
2018-11-26T08:34:05.269Z,994.79
2018-11-26T08:35:05.291Z,994.76
2018-11-26T08:36:05.310Z,994.78
2018-11-26T08:37:05.323Z,994.8
2018-11-26T08:38:05.343Z,994.8
2018-11-26T08:39:05.360Z,994.8
2018-11-26T08:40:05.385Z,994.79
2018-11-26T08:41:05.400Z,994.81
2018-11-26T08:42:05.419Z,994.81
2018-11-26T08:43:05.434Z,994.78
2018-11-26T08:44:09.502Z,994.8
2018-11-26T08:45:05.468Z,994.77
2018-11-26T08:46:05.486Z,994.81
2018-11-26T08:47:05.503Z,994.79
2018-11-26T08:48:05.521Z,994.79
2018-11-26T08:49:05.540Z,994.78
2018-11-26T08:50:05.561Z,994.81
2018-11-26T08:51:05.576Z,994.88
2018-11-26T08:52:05.595Z,994.86
2018-11-26T08:53:05.616Z,994.82
2018-11-26T08:54:05.630Z,994.88
2018-11-26T08:55:05.648Z,994.85
2018-11-26T08:56:05.670Z,994.83
2018-11-26T08:57:05.691Z,994.84
2018-11-26T08:58:05.703Z,994.8
2018-11-26T08:59:05.725Z,994.87
2018-11-26T09:00:05.742Z,994.87
2018-11-26T09:01:05.756Z,994.88
2018-11-26T09:02:05.773Z,994.91
2018-11-26T09:03:05.797Z,994.89
2018-11-26T09:04:05.813Z,994.88
2018-11-26T09:05:05.831Z,994.89
2018-11-26T09:06:05.847Z,994.9
2018-11-26T09:07:05.863Z,994.89
2018-11-26T09:08:05.883Z,994.92
2018-11-26T09:09:05.900Z,994.91
2018-11-26T09:10:05.920Z,994.89
2018-11-26T09:11:05.938Z,994.95
2018-11-26T09:12:05.959Z,994.97
2018-11-26T09:13:05.974Z,995.03
2018-11-26T09:14:05.992Z,995
2018-11-26T09:15:06.010Z,995.03
2018-11-26T09:16:06.029Z,995.02
2018-11-26T09:17:06.050Z,995.08
2018-11-26T09:18:06.069Z,995.09
2018-11-26T09:19:06.086Z,995.1
2018-11-26T09:20:06.102Z,995.11
2018-11-26T09:21:06.122Z,995.11
2018-11-26T09:22:06.136Z,995.1
2018-11-26T09:23:06.153Z,995.11
2018-11-26T09:24:06.172Z,995.08
2018-11-26T09:25:06.192Z,995.11
2018-11-26T09:26:06.211Z,995.15
2018-11-26T09:27:09.795Z,995.08
2018-11-26T09:28:06.246Z,995.13
2018-11-26T09:29:06.265Z,995.15
2018-11-26T09:30:06.285Z,995.07
2018-11-26T09:31:06.298Z,995.1
2018-11-26T09:32:06.317Z,995.1
2018-11-26T09:33:06.336Z,995.1
2018-11-26T09:34:06.356Z,995.15
2018-11-26T09:35:06.808Z,995.2
2018-11-26T09:36:06.390Z,995.15
2018-11-26T09:37:06.411Z,995.2
2018-11-26T09:38:06.435Z,995.18
2018-11-26T09:39:06.445Z,995.19
2018-11-26T09:40:06.463Z,995.2
2018-11-26T09:41:06.484Z,995.16
2018-11-26T09:42:06.498Z,995.16
2018-11-26T09:43:06.521Z,995.13
2018-11-26T09:44:06.535Z,995.16
2018-11-26T09:45:06.558Z,995.21
2018-11-26T09:46:06.578Z,995.17
2018-11-26T09:47:06.599Z,995.25
2018-11-26T09:48:06.610Z,995.23
2018-11-26T09:49:06.628Z,995.23
2018-11-26T09:50:06.649Z,995.18
2018-11-26T09:51:09.963Z,995.22
2018-11-26T09:52:06.680Z,995.15
2018-11-26T09:53:06.703Z,995.18
2018-11-26T09:54:06.721Z,995.19
2018-11-26T09:55:06.742Z,995.15
2018-11-26T09:56:06.758Z,995.16
2018-11-26T09:57:06.772Z,995.13
2018-11-26T09:58:06.791Z,995.2
2018-11-26T09:59:06.815Z,995.14
2018-11-26T10:00:06.828Z,995.12
2018-11-26T10:01:06.845Z,995.19
2018-11-26T10:02:07.585Z,995.13
2018-11-26T10:03:06.884Z,995.17
2018-11-26T10:04:06.903Z,995.17
2018-11-26T10:05:06.919Z,995.15
2018-11-26T10:06:06.937Z,995.21
2018-11-26T10:07:06.958Z,995.19
2018-11-26T10:08:06.977Z,995.18
2018-11-26T10:09:06.994Z,995.24
2018-11-26T10:10:07.013Z,995.21
2018-11-26T10:11:07.027Z,995.18
2018-11-26T10:12:07.047Z,995.19
2018-11-26T10:13:07.068Z,995.18
2018-11-26T10:14:07.088Z,995.21
2018-11-26T10:15:07.102Z,995.23
2018-11-26T10:16:07.121Z,995.24
2018-11-26T10:17:07.142Z,995.24
2018-11-26T10:18:07.154Z,995.25
2018-11-26T10:19:07.176Z,995.31
2018-11-26T10:20:07.197Z,995.26
2018-11-26T10:21:07.211Z,995.28
2018-11-26T10:22:07.228Z,995.27
2018-11-26T10:23:07.251Z,995.27
2018-11-26T10:24:07.265Z,995.32
2018-11-26T10:25:07.560Z,995.3
2018-11-26T10:26:07.303Z,995.33
2018-11-26T10:27:07.320Z,995.34
2018-11-26T10:28:07.340Z,995.34
2018-11-26T10:29:07.357Z,995.33
2018-11-26T10:30:07.379Z,995.29
2018-11-26T10:31:07.392Z,995.33
2018-11-26T10:32:07.413Z,995.34
2018-11-26T10:33:14.395Z,995.35
2018-11-26T10:34:07.449Z,995.3
2018-11-26T10:35:07.474Z,995.3
2018-11-26T10:36:07.484Z,995.28
2018-11-26T10:37:07.504Z,995.26
2018-11-26T10:38:07.522Z,995.28
2018-11-26T10:39:07.546Z,995.27
2018-11-26T10:40:07.557Z,995.27
2018-11-26T10:41:07.578Z,995.29
2018-11-26T10:42:07.594Z,995.33
2018-11-26T10:43:11.497Z,995.33
2018-11-26T10:44:07.637Z,995.32
2018-11-26T10:45:07.651Z,995.36
2018-11-26T10:46:07.669Z,995.3
2018-11-26T10:47:07.691Z,995.31
2018-11-26T10:48:07.706Z,995.32
2018-11-26T10:49:07.725Z,995.34
2018-11-26T10:50:07.744Z,995.29
2018-11-26T10:51:07.765Z,995.32
2018-11-26T10:52:07.779Z,995.29
2018-11-26T10:53:08.121Z,995.29
2018-11-26T10:54:07.816Z,995.29
2018-11-26T10:55:07.839Z,995.28
2018-11-26T10:56:07.856Z,995.21
2018-11-26T10:57:07.874Z,995.27
2018-11-26T10:58:07.893Z,995.27
2018-11-26T10:59:07.912Z,995.26
2018-11-26T11:00:07.927Z,995.26
2018-11-26T11:01:07.948Z,995.31
2018-11-26T11:02:07.967Z,995.33
2018-11-26T11:03:07.986Z,995.38
2018-11-26T11:04:08.005Z,995.36
2018-11-26T11:05:08.018Z,995.34
2018-11-26T11:06:08.041Z,995.41
2018-11-26T11:07:08.056Z,995.36
2018-11-26T11:08:08.074Z,995.38
2018-11-26T11:09:08.091Z,995.35
2018-11-26T11:10:08.111Z,995.34
2018-11-26T11:11:08.129Z,995.31
2018-11-26T11:12:08.147Z,995.36
2018-11-26T11:13:08.164Z,995.37
2018-11-26T11:14:08.185Z,995.4
2018-11-26T11:15:08.206Z,995.43
2018-11-26T11:16:08.222Z,995.46
2018-11-26T11:17:08.239Z,995.43
2018-11-26T11:18:08.264Z,995.46
2018-11-26T11:19:08.276Z,995.45
2018-11-26T11:20:08.295Z,995.45
2018-11-26T11:21:08.317Z,995.44
2018-11-26T11:22:08.334Z,995.48
2018-11-26T11:23:08.351Z,995.5
2018-11-26T11:24:08.373Z,995.49
2018-11-26T11:25:08.387Z,995.51
2018-11-26T11:26:08.406Z,995.51
2018-11-26T11:27:08.423Z,995.51
2018-11-26T11:28:08.444Z,995.48
2018-11-26T11:29:08.463Z,995.55
2018-11-26T11:30:08.483Z,995.52
2018-11-26T11:31:08.496Z,995.52
2018-11-26T11:32:08.518Z,995.47
2018-11-26T11:34:08.552Z,995.51
2018-11-26T11:35:08.570Z,995.54
2018-11-26T11:36:08.588Z,995.53
2018-11-26T11:37:08.608Z,995.51
2018-11-26T11:38:08.628Z,995.57
2018-11-26T11:39:08.644Z,995.51
2018-11-26T11:40:08.667Z,995.52
2018-11-26T11:41:08.685Z,995.53
2018-11-26T11:42:08.699Z,995.48
2018-11-26T11:43:08.718Z,995.5
2018-11-26T11:44:08.738Z,995.48
2018-11-26T11:45:08.754Z,995.48
2018-11-26T11:46:08.772Z,995.47
2018-11-26T11:47:08.794Z,995.48
2018-11-26T11:48:08.811Z,995.46
2018-11-26T11:49:08.828Z,995.46
2018-11-26T11:50:08.846Z,995.46
2018-11-26T11:51:08.864Z,995.47
2018-11-26T11:52:08.889Z,995.46
2018-11-26T11:53:08.903Z,995.43
2018-11-26T11:54:08.924Z,995.44
2018-11-26T11:55:08.939Z,995.43
2018-11-26T11:56:08.957Z,995.47
2018-11-26T11:57:08.980Z,995.44
2018-11-26T11:58:08.994Z,995.46
2018-11-26T11:59:09.014Z,995.43
2018-11-26T12:00:09.032Z,995.48
2018-11-26T12:01:10.584Z,995.48
2018-11-26T12:02:09.071Z,995.47
2018-11-26T12:03:09.086Z,995.45
2018-11-26T12:04:09.106Z,995.48
2018-11-26T12:05:09.126Z,995.43
2018-11-26T12:06:09.143Z,995.45
2018-11-26T12:07:09.164Z,995.46
2018-11-26T12:08:09.180Z,995.46
2018-11-26T12:09:09.196Z,995.42
2018-11-26T12:10:09.216Z,995.42
2018-11-26T12:11:09.233Z,995.5
2018-11-26T12:12:09.253Z,995.43
2018-11-26T12:13:09.274Z,995.47
2018-11-26T12:14:09.290Z,995.45
2018-11-26T12:15:09.311Z,995.45
2018-11-26T12:16:09.327Z,995.47
2018-11-26T12:17:09.349Z,995.47
2018-11-26T12:18:09.367Z,995.45
2018-11-26T12:19:09.385Z,995.44
2018-11-26T12:20:09.401Z,995.42
2018-11-26T12:21:09.422Z,995.47
2018-11-26T12:22:09.437Z,995.41
2018-11-26T12:23:09.457Z,995.44
2018-11-26T12:24:09.476Z,995.38
2018-11-26T12:25:09.497Z,995.38
2018-11-26T12:26:09.512Z,995.35
2018-11-26T12:27:09.530Z,995.33
2018-11-26T12:28:09.549Z,995.35
2018-11-26T12:29:09.568Z,995.37
2018-11-26T12:30:09.585Z,995.37
2018-11-26T12:31:09.792Z,995.34
2018-11-26T12:32:09.623Z,995.35
2018-11-26T12:33:09.643Z,995.36